首页
METAR-TAF:

METAR-TAF

机场 :

新潟機場

新潟, 日本

纬度: 37-57N, 经度: 139-07E, 海拔: 1米

当前天气观测

该预报发布于38分钟前的11:11 UTC
风速9节,风向南转南东
温度 17°C
湿度 77%
气压 1017 hPa
能见度10公里或以上
少量云层高于2000英尺
少量云层高于2500英尺, 积雨云.
散云层高于4000英尺
多云层高于8000英尺
小阵雨

METAR: RJSN 191111Z 16009KT 9999 -SHRA FEW020 FEW025CB SCT040 BKN080 17/13 Q1017 RMK 1CU020 2CB025 4CU040 7AC080 A3006 CB SW-NW

时间: 20:49 (11:49 UTC)

预报

该预报发布于44分钟前的11:05 UTC
预报有效从19日的 12点(UTC)到 20日的 18点(UTC)
风速12节,风向南转南东
能見度: 8000
少量云层高于800英尺
多云层高于2000英尺
小阵雨
短暂存在
从 19日的 12点(UTC)到 19日的 16点(UTC)
能見度: 3000
少量云层高于500英尺
多云层高于800英尺
少量云层高于2000英尺, 积雨云.
雷暴, 雨, 轻雾
成为
从 19日的 21点(UTC)到 19日的 23点(UTC)
风速8节,风向西北
短暂存在
从 19日的 21点(UTC)到 20日的 03点(UTC)
能見度: 3000
少量云层高于1000英尺
多云层高于1500英尺
少量云层高于2000英尺, 积雨云.
雷暴, 雨, 轻雾

TAF: RJSN 191105Z 1912/2018 16012KT 8000 -SHRA FEW008 BKN020 TEMPO 1912/1916 3000 TSRA BR FEW005 BKN008 FEW020CB BECMG 1921/1923 31008KT TEMPO 1921/2003 3000 TSRA BR FEW010 BKN015 FEW020CB

超过4000个机场的气象观测和天气预报(METAR&TAF报告)。

可查询的气象台以黄色和红色小点在地图上表示。

将鼠标移到小点上方,可查看气象台名称。

然后点击查看天气观测和预报。

如需切换地图:点击带黑十字的绿色按钮放大地图;点击带横线的绿色按钮缩小地图;或者点击绿色箭头查看邻近地区的地图。


METAR-TAF: